createdAt,value
2022-08-22T08:32:38.011Z,99708.47
2022-08-22T08:34:43.875Z,99708.47
2022-08-22T08:36:55.264Z,99715.81
2022-08-22T08:39:14.094Z,99722.16
2022-08-22T08:41:42.990Z,99716.44
2022-08-22T08:44:00.494Z,99715.72
2022-08-22T08:46:33.035Z,99722.53
2022-08-22T08:48:58.302Z,99709.19
2022-08-22T08:51:23.392Z,99705.53
2022-08-22T08:53:29.486Z,99706.00
2022-08-22T08:58:28.780Z,99712.53
2022-08-22T09:00:52.852Z,99719.47
2022-08-22T09:03:30.251Z,99716.34
2022-08-22T09:05:47.212Z,99723.53
2022-08-22T09:07:55.713Z,99718.16
2022-08-22T09:10:19.825Z,99718.72
2022-08-22T09:12:33.674Z,99717.06
2022-08-22T09:15:04.018Z,99709.59
2022-08-22T09:17:41.240Z,99711.69
2022-08-22T09:20:17.548Z,99709.94
2022-08-22T09:22:24.897Z,99707.47
2022-08-22T09:24:41.363Z,99702.28
2022-08-22T09:26:49.603Z,99702.22
2022-08-22T09:29:00.174Z,99708.31
2022-08-22T09:31:44.835Z,99708.59
2022-08-22T09:34:10.517Z,99709.94
2022-08-22T09:36:23.740Z,99707.56
2022-08-22T09:38:48.053Z,99708.22
2022-08-22T09:40:16.033Z,99708.22
2022-08-22T09:41:29.444Z,99715.38
2022-08-22T09:43:49.232Z,99716.03
2022-08-22T09:46:13.235Z,99707.25
2022-08-22T09:48:31.685Z,99714.34
2022-08-22T09:51:08.465Z,99715.72
2022-08-22T09:53:51.689Z,99716.44
2022-08-22T09:56:15.097Z,99722.22
2022-08-22T09:58:41.701Z,99719.66
2022-08-22T10:00:58.022Z,99720.28
2022-08-22T10:03:14.561Z,99722.72
2022-08-22T10:05:43.886Z,99721.81
2022-08-22T10:08:25.507Z,99725.41
2022-08-22T10:10:46.413Z,99719.63
2022-08-22T10:13:23.868Z,99724.44
2022-08-22T10:15:44.736Z,99729.19
2022-08-22T10:18:06.044Z,99723.41
2022-08-22T10:20:17.959Z,99725.03
2022-08-22T10:22:41.306Z,99726.63
2022-08-22T10:25:12.838Z,99721.53
2022-08-22T10:27:30.358Z,99724.31
2022-08-22T10:29:47.541Z,99719.03
2022-08-22T10:32:01.372Z,99730.59
2022-08-22T10:34:22.709Z,99730.97
2022-08-22T10:36:47.746Z,99722.44
2022-08-22T10:38:54.665Z,99722.38
2022-08-22T10:41:09.302Z,99722.78
2022-08-22T10:43:17.053Z,99725.28
2022-08-22T10:45:24.050Z,99726.72
2022-08-22T10:47:58.578Z,99725.91
2022-08-22T10:50:20.087Z,99720.34
2022-08-22T10:52:30.549Z,99715.00
2022-08-22T10:54:44.945Z,99723.03
2022-08-22T10:57:08.222Z,99720.56
2022-08-22T10:59:29.199Z,99723.62
2022-08-22T11:01:42.177Z,99717.97
2022-08-22T11:04:02.665Z,99707.47
2022-08-22T11:06:15.533Z,99712.37
2022-08-22T11:08:38.091Z,99709.97
2022-08-22T11:10:59.623Z,99721.25
2022-08-22T11:13:43.377Z,99710.38
2022-08-22T11:16:16.129Z,99707.28
2022-08-22T11:18:57.872Z,99711.87
2022-08-22T11:21:11.151Z,99717.34
2022-08-22T11:23:29.058Z,99715.50
2022-08-22T11:25:58.106Z,99711.47
2022-08-22T11:28:42.341Z,99713.31
2022-08-22T11:30:53.452Z,99705.84
2022-08-22T11:32:59.454Z,99711.22
2022-08-22T11:35:20.379Z,99706.75
2022-08-22T11:38:01.315Z,99693.72
2022-08-22T11:40:22.782Z,99696.53
2022-08-22T11:42:48.169Z,99685.81
2022-08-22T11:44:59.074Z,99685.53
2022-08-22T11:47:07.641Z,99701.41
2022-08-22T11:49:27.044Z,99683.22
2022-08-22T11:51:34.252Z,99674.28
2022-08-22T11:53:48.171Z,99683.44
2022-08-22T11:56:15.584Z,99677.66
2022-08-22T11:58:29.126Z,99691.13
2022-08-22T12:00:54.140Z,99683.56
2022-08-22T12:03:23.348Z,99679.81
2022-08-22T12:05:42.971Z,99677.88
2022-08-22T12:08:10.539Z,99681.75
2022-08-22T12:10:21.880Z,99679.91
2022-08-22T12:12:49.786Z,99693.59
2022-08-22T12:15:09.111Z,99681.34
2022-08-22T12:17:55.847Z,99682.81
2022-08-22T12:20:17.590Z,99676.53
2022-08-22T12:23:11.623Z,99681.44
2022-08-22T12:25:44.840Z,99678.12
2022-08-22T12:27:57.375Z,99694.72
2022-08-22T12:30:14.015Z,99685.91
2022-08-22T12:32:36.019Z,99685.91
2022-08-22T12:34:50.443Z,99689.37
2022-08-22T12:37:15.750Z,99678.69
2022-08-22T12:39:41.070Z,99665.69
2022-08-22T12:42:26.087Z,99670.63
2022-08-22T12:44:56.703Z,99673.75
2022-08-22T12:47:04.478Z,99670.81
2022-08-22T12:49:14.383Z,99672.91
2022-08-22T12:51:32.389Z,99670.44
2022-08-22T12:53:58.818Z,99669.22
2022-08-22T12:56:38.089Z,99668.97
2022-08-22T12:58:55.078Z,99669.62
2022-08-22T13:01:06.281Z,99666.72
2022-08-22T13:03:18.923Z,99672.72
2022-08-22T13:05:26.831Z,99677.84
2022-08-22T13:07:34.379Z,99669.31
2022-08-22T13:09:47.132Z,99681.84
2022-08-22T13:11:54.546Z,99675.13
2022-08-22T13:14:02.438Z,99682.13
2022-08-22T13:16:12.019Z,99677.09
2022-08-22T13:18:30.745Z,99678.31
2022-08-22T13:20:37.813Z,99679.09
2022-08-22T13:22:45.649Z,99682.31
2022-08-22T13:24:52.333Z,99682.19
2022-08-22T13:27:02.860Z,99686.38
2022-08-22T13:29:39.092Z,99684.03
2022-08-22T13:31:43.013Z,99682.19
2022-08-22T13:33:48.127Z,99692.91
2022-08-22T13:35:58.310Z,99692.69
2022-08-22T13:38:12.255Z,99697.09
2022-08-22T13:40:25.606Z,99699.13
2022-08-22T13:42:32.322Z,99692.00
2022-08-22T13:44:41.150Z,99693.47
2022-08-22T13:47:13.026Z,99705.41
2022-08-22T13:49:12.550Z,99698.66
2022-08-22T13:51:30.552Z,99707.47
2022-08-22T13:53:49.361Z,99713.06
2022-08-22T13:56:16.670Z,99709.41
2022-08-22T13:58:32.030Z,99713.88
2022-08-22T14:00:57.293Z,99708.50
2022-08-22T14:03:08.236Z,99719.25
2022-08-22T14:05:27.882Z,99714.16
2022-08-22T14:07:37.337Z,99704.66
2022-08-22T14:09:52.999Z,99707.75
2022-08-22T14:12:13.672Z,99708.06
2022-08-22T14:14:28.324Z,99700.97
2022-08-22T14:16:48.060Z,99705.78
2022-08-22T14:18:59.782Z,99700.12
2022-08-22T14:21:27.818Z,99704.41
2022-08-22T14:23:36.280Z,99698.34
2022-08-22T14:25:41.935Z,99701.69
2022-08-22T14:27:59.440Z,99693.69
2022-08-22T14:30:12.270Z,99697.13
2022-08-22T14:32:26.740Z,99694.25
2022-08-22T14:34:34.619Z,99693.53
2022-08-22T14:36:53.598Z,99694.84
2022-08-22T14:39:10.155Z,99686.50
2022-08-22T14:41:28.677Z,99698.91
2022-08-22T14:44:02.624Z,99693.75
2022-08-22T14:46:14.509Z,99694.81
2022-08-22T14:48:30.999Z,99703.87
2022-08-22T14:50:37.452Z,99715.28
2022-08-22T14:52:44.629Z,99711.66
2022-08-22T14:54:46.951Z,99710.34
2022-08-22T14:56:53.770Z,99712.00
2022-08-22T14:59:04.675Z,99710.47
2022-08-22T15:01:15.680Z,99708.34
2022-08-22T15:03:34.970Z,99701.72
2022-08-22T15:05:45.180Z,99708.34
2022-08-22T15:07:59.445Z,99704.13
2022-08-22T15:10:27.360Z,99702.09
2022-08-22T15:12:37.749Z,99696.75
2022-08-22T15:14:40.309Z,99699.34
2022-08-22T15:16:59.742Z,99700.38
2022-08-22T15:19:19.265Z,99700.75
2022-08-22T15:21:29.004Z,99702.13
2022-08-22T15:23:32.347Z,99707.69
2022-08-22T15:25:59.863Z,99714.47
2022-08-22T15:28:24.561Z,99710.91
2022-08-22T15:30:44.323Z,99717.59
2022-08-22T15:32:49.062Z,99705.16
2022-08-22T15:34:53.302Z,99714.56
2022-08-22T15:37:14.290Z,99714.00
2022-08-22T15:39:35.243Z,99720.06
2022-08-22T15:41:45.138Z,99717.56
2022-08-22T15:43:50.625Z,99722.75
2022-08-22T15:46:27.750Z,99724.44
2022-08-22T15:48:34.075Z,99731.34
2022-08-22T15:50:41.927Z,99735.59
2022-08-22T15:53:11.313Z,99735.41
2022-08-22T15:55:22.607Z,99749.37
2022-08-22T15:57:32.106Z,99755.38
2022-08-22T15:59:53.642Z,99757.56
2022-08-22T16:02:22.681Z,99761.31
2022-08-22T16:04:40.482Z,99759.28
2022-08-22T16:06:54.143Z,99760.31
2022-08-22T16:08:58.254Z,99755.63
2022-08-22T16:11:03.485Z,99751.66
2022-08-22T16:13:26.759Z,99744.22
2022-08-22T16:16:08.205Z,99747.63
2022-08-22T16:18:33.557Z,99750.09
2022-08-22T16:20:35.793Z,99756.53
2022-08-22T16:22:56.678Z,99746.53
2022-08-22T16:25:02.343Z,99750.03
2022-08-22T16:27:19.475Z,99753.44
2022-08-22T16:29:41.185Z,99756.28
2022-08-22T16:31:44.271Z,99756.63
2022-08-22T16:33:47.945Z,99754.41
2022-08-22T16:36:28.183Z,99749.94
2022-08-22T16:38:40.285Z,99753.69
2022-08-22T16:40:48.657Z,99749.13
2022-08-22T16:43:15.122Z,99757.78
2022-08-22T16:45:35.191Z,99756.06
2022-08-22T16:47:56.004Z,99759.34
2022-08-22T16:50:18.483Z,99761.47
2022-08-22T16:52:21.153Z,99759.09
2022-08-22T16:54:45.367Z,99754.75
2022-08-22T16:57:07.739Z,99749.94
2022-08-22T16:59:38.407Z,99755.66
2022-08-22T17:01:50.676Z,99759.19
2022-08-22T17:04:17.263Z,99753.97
2022-08-22T17:06:41.772Z,99755.84
2022-08-22T17:09:03.225Z,99760.09
2022-08-22T17:11:14.357Z,99758.91
2022-08-22T17:14:02.457Z,99761.94
2022-08-22T17:16:43.211Z,99768.22
2022-08-22T17:19:06.005Z,99777.28
2022-08-22T17:21:15.331Z,99775.84
2022-08-22T17:23:36.307Z,99776.56
2022-08-22T17:26:11.781Z,99781.09
2022-08-22T17:28:34.833Z,99791.41
2022-08-22T17:30:41.322Z,99783.47
2022-08-22T17:32:59.191Z,99792.00
2022-08-22T17:35:17.631Z,99793.53
2022-08-22T17:37:32.503Z,99790.22
2022-08-22T17:40:07.543Z,99795.47
2022-08-22T17:42:43.473Z,99794.19
2022-08-22T17:44:50.406Z,99796.09
2022-08-22T17:47:06.074Z,99797.59
2022-08-22T17:49:11.075Z,99804.91
2022-08-22T17:51:34.479Z,99806.00
2022-08-22T17:53:48.103Z,99806.50
2022-08-22T17:56:04.520Z,99797.81
2022-08-22T17:58:37.683Z,99801.56
2022-08-22T18:00:47.510Z,99802.25
2022-08-22T18:03:22.174Z,99798.50
2022-08-22T18:05:29.606Z,99808.00
2022-08-22T18:07:46.274Z,99800.56
2022-08-22T18:10:15.503Z,99802.72
2022-08-22T18:12:29.121Z,99805.06
2022-08-22T18:14:45.372Z,99801.75
2022-08-22T18:16:52.725Z,99804.84
2022-08-22T18:19:11.720Z,99810.53
2022-08-22T18:21:33.260Z,99808.19
2022-08-22T18:23:42.466Z,99808.53
2022-08-22T18:26:01.046Z,99805.06
2022-08-22T18:28:20.815Z,99813.41
2022-08-22T18:30:28.669Z,99808.38
2022-08-22T18:32:48.457Z,99813.25
2022-08-22T18:35:02.687Z,99817.91
2022-08-22T18:37:30.908Z,99814.66
2022-08-22T18:39:53.525Z,99819.16
2022-08-22T18:42:12.470Z,99816.69
2022-08-22T18:44:28.763Z,99813.41
2022-08-22T18:46:31.862Z,99814.38
2022-08-22T18:48:34.477Z,99819.56
2022-08-22T18:50:37.393Z,99818.19
2022-08-22T18:52:40.407Z,99814.38
2022-08-22T18:55:22.607Z,99812.22
2022-08-22T18:57:38.693Z,99824.69
2022-08-22T19:00:16.596Z,99828.66
2022-08-22T19:02:39.926Z,99834.00
2022-08-22T19:05:29.779Z,99831.56
2022-08-22T19:07:55.761Z,99840.13
2022-08-22T19:10:21.131Z,99844.53
2022-08-22T19:12:36.237Z,99839.00
2022-08-22T19:15:18.063Z,99842.00
2022-08-22T19:17:46.924Z,99848.34
2022-08-22T19:20:30.024Z,99853.31
2022-08-22T19:22:35.951Z,99857.31
2022-08-22T19:25:03.584Z,99859.78
2022-08-22T19:27:31.318Z,99853.00
2022-08-22T19:29:34.203Z,99851.31
2022-08-22T19:31:37.544Z,99861.44
2022-08-22T19:33:42.047Z,99863.47
2022-08-22T19:36:07.930Z,99861.13
2022-08-22T19:38:11.956Z,99864.13
2022-08-22T19:40:46.214Z,99868.09
2022-08-22T19:42:50.244Z,99863.41
2022-08-22T19:44:55.834Z,99865.63
2022-08-22T19:47:10.708Z,99858.81
2022-08-22T19:49:36.035Z,99863.97
2022-08-22T19:51:39.048Z,99859.16
2022-08-22T19:53:53.646Z,99862.63
2022-08-22T19:56:25.109Z,99860.47
2022-08-22T19:58:46.370Z,99867.59
2022-08-22T20:01:04.679Z,99866.13
2022-08-22T20:03:32.629Z,99864.94
2022-08-22T20:05:56.937Z,99864.28
2022-08-22T20:08:24.944Z,99868.62
2022-08-22T20:11:05.987Z,99867.09
2022-08-22T20:13:31.069Z,99864.44
2022-08-22T20:16:03.726Z,99870.87
2022-08-22T20:18:47.156Z,99866.75
2022-08-22T20:20:54.893Z,99868.09
2022-08-22T20:23:06.479Z,99862.78
2022-08-22T20:25:44.032Z,99858.78
2022-08-22T20:27:50.940Z,99860.62
2022-08-22T20:30:08.680Z,99859.38
2022-08-22T20:32:14.944Z,99858.94
2022-08-22T20:34:23.492Z,99856.56
2022-08-22T20:36:28.702Z,99857.44
2022-08-22T20:38:55.685Z,99852.66
2022-08-22T20:41:11.406Z,99856.97
2022-08-22T20:44:01.674Z,99856.78
2022-08-22T20:46:19.045Z,99846.84
2022-08-22T20:48:21.709Z,99844.50
2022-08-22T20:50:25.975Z,99844.16
2022-08-22T20:52:54.232Z,99841.03
2022-08-22T20:55:15.145Z,99839.69
2022-08-22T20:57:19.418Z,99846.00
2022-08-22T20:59:27.497Z,99844.19
2022-08-22T21:01:31.171Z,99841.53
2022-08-22T21:03:41.283Z,99845.50
2022-08-22T21:05:45.369Z,99844.19
2022-08-22T21:08:03.973Z,99844.31
2022-08-22T21:10:35.295Z,99843.00
2022-08-22T21:12:37.589Z,99840.34
2022-08-22T21:14:46.147Z,99840.03
2022-08-22T21:16:49.422Z,99836.34
2022-08-22T21:18:53.725Z,99842.03
2022-08-22T21:21:20.822Z,99844.84
2022-08-22T21:23:23.438Z,99842.50
2022-08-22T21:25:26.301Z,99841.03
2022-08-22T21:27:32.379Z,99834.53
2022-08-22T21:29:42.201Z,99841.53
2022-08-22T21:31:46.282Z,99839.38
2022-08-22T21:33:51.878Z,99840.34
2022-08-22T21:35:57.562Z,99839.22
2022-08-22T21:38:01.371Z,99840.19
2022-08-22T21:40:25.709Z,99840.00
2022-08-22T21:42:34.720Z,99839.88
2022-08-22T21:44:38.487Z,99831.91
2022-08-22T21:46:41.013Z,99830.06
2022-08-22T21:48:58.502Z,99831.06
2022-08-22T21:51:23.701Z,99842.16
2022-08-22T21:53:28.049Z,99843.34
2022-08-22T21:55:37.891Z,99844.53
2022-08-22T21:57:40.264Z,99832.72
2022-08-22T21:59:59.721Z,99837.84
2022-08-22T22:02:27.478Z,99840.53
2022-08-22T22:04:30.114Z,99843.00
2022-08-22T22:06:32.381Z,99847.81
2022-08-22T22:08:34.666Z,99859.06
2022-08-22T22:10:38.803Z,99856.63
2022-08-22T22:12:42.891Z,99862.38
2022-08-22T22:14:49.381Z,99867.09
2022-08-22T22:16:52.105Z,99869.72
2022-08-22T22:18:54.797Z,99876.03
2022-08-22T22:20:57.724Z,99869.63
2022-08-22T22:23:00.266Z,99882.31
2022-08-22T22:25:02.623Z,99876.03
2022-08-22T22:27:05.853Z,99882.19
2022-08-22T22:29:10.687Z,99881.34
2022-08-22T22:31:14.333Z,99876.19
2022-08-22T22:33:18.510Z,99884.16
2022-08-22T22:35:21.119Z,99884.22
2022-08-22T22:37:23.592Z,99888.53
2022-08-22T22:39:25.980Z,99887.69
2022-08-22T22:41:28.633Z,99894.63
2022-08-22T22:43:30.922Z,99892.47
2022-08-22T22:45:34.555Z,99879.37
2022-08-22T22:47:37.746Z,99893.50
2022-08-22T22:49:40.053Z,99887.50
2022-08-22T22:51:42.395Z,99890.28
2022-08-22T22:53:45.964Z,99894.63
2022-08-22T22:55:59.968Z,99891.44
2022-08-22T22:58:03.360Z,99894.97
2022-08-22T23:00:07.431Z,99894.94
2022-08-22T23:02:17.820Z,99897.09
2022-08-22T23:04:20.132Z,99888.97
2022-08-22T23:06:24.879Z,99895.47
2022-08-22T23:08:27.489Z,99901.28
2022-08-22T23:10:31.384Z,99899.56
2022-08-22T23:12:36.836Z,99904.72
2022-08-22T23:14:39.399Z,99893.56
2022-08-22T23:16:42.288Z,99901.44
2022-08-22T23:18:46.013Z,99890.81
